Logan, Indiana
Current Conditions -  °F | °C
As of 10:35 AM on Saturday 22 Nov 2014 (Local Time) from KDCY Reporting Station
Overcast Overcast  
Wind Chill: 56°   Ceiling: 5000
Heat Index: 56°   Visibility: 10mi
Dew Point: 43°   Wind: 18mph
Humidity: 61%   Direction: 210°SSW
Pressure: 30.17"   Gusts: 30mph
Location:  38.4723°N, 87.3105°W
Report Text: KDCY 221635Z AUTO 21016G26KT 10SM OVC050 14/06 A3017 RMK AO2 T01350060
Loading
Personal Weather Stations






























Interactive Weather Map New forecast layout! Learn more

10-Day Weather Forecast

Advertisements
Track Severe Weather on mobile